Time;durP1;ratioP1;P1;durP2;ratioP2;P2;SDS_P1;SDS_P2;PMS_P1;PMS_P2;Temp;Humidity;BMP_temperature;BMP_pressure;BME280_temperature;BME280_humidity;BME280_pressure;Samples;Min_cycle;Max_cycle;Signal;HPM_P1;HPM_P2
2022/03/26 00:03:36;;;;;;;47.05;24.98;;;;;;;7.46;58.42;101888.03;8547172;33;20237;-73
2022/03/26 00:08:39;;;;;;;46.10;23.83;;;;;;;7.60;57.75;101889.25;8544628;33;20447;-74
2022/03/26 00:13:42;;;;;;;45.97;23.80;;;;;;;7.81;57.34;101895.41;8542642;33;20448;-74
2022/03/26 00:18:47;;;;;;;39.03;21.65;;;;;;;7.81;56.89;101876.69;8543891;33;20458;-73
2022/03/26 00:23:50;;;;;;;44.00;22.13;;;;;;;7.87;56.54;101885.31;8545554;33;20155;-74
2022/03/26 00:28:54;;;;;;;43.47;21.13;;;;;;;7.70;56.80;101887.88;8546360;33;21056;-74
2022/03/26 00:33:58;;;;;;;43.42;22.38;;;;;;;7.57;57.13;101887.56;8555811;33;20144;-74
2022/03/26 00:39:02;;;;;;;44.47;20.58;;;;;;;7.49;57.36;101884.38;8566099;33;20184;-74
2022/03/26 00:44:05;;;;;;;47.42;21.92;;;;;;;7.43;57.78;101889.97;8553307;33;20148;-74
2022/03/26 00:49:10;;;;;;;46.70;22.88;;;;;;;7.26;58.16;101891.56;8544764;33;20430;-74
2022/03/26 00:54:14;;;;;;;49.70;24.30;;;;;;;7.00;58.73;101894.50;8548810;33;21029;-73
2022/03/26 00:59:17;;;;;;;42.83;22.63;;;;;;;7.05;59.15;101893.38;8549189;33;20148;-75
2022/03/26 01:04:21;;;;;;;42.65;20.83;;;;;;;6.81;59.29;101900.56;8547352;33;20192;-74
2022/03/26 01:09:24;;;;;;;39.03;20.45;;;;;;;6.60;60.68;101898.75;8542586;33;20420;-74
2022/03/26 01:14:28;;;;;;;42.70;18.80;;;;;;;6.56;60.91;101891.81;8543151;33;20426;-74
2022/03/26 01:19:32;;;;;;;41.65;19.65;;;;;;;6.45;61.52;101888.72;8543806;33;20179;-74
2022/03/26 01:24:36;;;;;;;42.85;21.77;;;;;;;6.10;62.15;101889.16;8543359;33;20422;-74
2022/03/26 01:29:40;;;;;;;42.47;22.77;;;;;;;6.07;62.54;101885.75;8552076;33;20136;-74
2022/03/26 01:34:46;;;;;;;40.10;20.40;;;;;;;6.02;62.92;101885.03;8558233;33;20488;-74
2022/03/26 01:39:49;;;;;;;40.28;19.77;;;;;;;6.13;62.68;101890.84;8546603;33;20833;-74
2022/03/26 01:44:52;;;;;;;42.67;21.75;;;;;;;6.11;62.74;101880.22;8544294;33;20182;-74
2022/03/26 01:49:56;;;;;;;44.25;20.35;;;;;;;6.28;62.25;101876.91;8542954;33;20622;-74
2022/03/26 01:54:59;;;;;;;43.30;20.75;;;;;;;6.40;62.02;101878.22;8542647;33;20443;-74
2022/03/26 02:00:06;;;;;;;36.05;18.67;;;;;;;6.44;61.82;101878.94;8539647;33;20411;-74
2022/03/26 02:05:20;;;;;;;35.03;17.15;;;;;;;6.53;61.62;101867.94;8542539;33;20467;-74
2022/03/26 02:10:23;;;;;;;40.25;17.55;;;;;;;6.54;61.46;101873.19;8535056;33;20198;-74
2022/03/26 02:15:27;;;;;;;42.13;17.10;;;;;;;6.48;61.58;101867.25;8545934;33;21469;-74
2022/03/26 02:20:31;;;;;;;42.28;20.48;;;;;;;6.36;61.49;101860.56;8547397;33;20445;-74
2022/03/26 02:25:34;;;;;;;33.28;17.50;;;;;;;6.27;61.75;101864.47;8546646;33;20516;-74
2022/03/26 02:30:38;;;;;;;46.78;23.98;;;;;;;5.89;62.60;101860.63;8541871;33;20944;-74
2022/03/26 02:35:42;;;;;;;54.33;28.35;;;;;;;5.53;64.06;101860.22;8543363;33;20608;-74
2022/03/26 02:40:46;;;;;;;51.72;27.95;;;;;;;5.65;63.89;101860.63;8549726;33;20506;-73
2022/03/26 02:45:49;;;;;;;47.38;24.50;;;;;;;5.69;63.22;101859.56;8551303;33;20422;-73
2022/03/26 02:50:54;;;;;;;48.72;24.63;;;;;;;5.61;63.28;101855.47;8550901;33;20163;-72
2022/03/26 02:55:57;;;;;;;47.33;23.63;;;;;;;5.60;63.30;101867.06;8549792;33;20456;-74
2022/03/26 03:01:01;;;;;;;49.25;26.00;;;;;;;5.43;63.42;101868.53;8550020;33;20133;-73
2022/03/26 03:06:05;;;;;;;44.05;22.55;;;;;;;5.21;63.67;101863.09;8548228;33;21416;-74
2022/03/26 03:11:09;;;;;;;46.58;23.30;;;;;;;5.06;64.43;101864.50;8545347;33;20454;-74
2022/03/26 03:16:12;;;;;;;43.38;21.83;;;;;;;5.02;64.83;101864.66;8544914;33;20271;-74
2022/03/26 03:21:17;;;;;;;49.15;23.77;;;;;;;4.88;65.47;101858.88;8545382;33;20571;-74
2022/03/26 03:26:20;;;;;;;49.47;23.77;;;;;;;4.94;65.85;101861.38;8544827;33;20170;-74
2022/03/26 03:31:23;;;;;;;48.60;24.02;;;;;;;4.96;65.90;101863.03;8547616;33;20231;-74
2022/03/26 03:36:27;;;;;;;43.20;22.08;;;;;;;5.02;66.02;101867.34;8546901;33;20154;-74
2022/03/26 03:41:30;;;;;;;49.55;25.27;;;;;;;4.94;66.19;101872.03;8551128;33;22033;-73
2022/03/26 03:46:34;;;;;;;58.08;26.80;;;;;;;4.95;66.38;101869.28;8549716;33;20556;-74
2022/03/26 03:51:39;;;;;;;48.67;25.65;;;;;;;5.07;66.49;101865.34;8543400;33;20498;-74
2022/03/26 03:56:42;;;;;;;44.83;22.42;;;;;;;5.15;65.90;101862.44;8542491;33;20422;-74
2022/03/26 04:01:46;;;;;;;46.92;22.65;;;;;;;5.10;65.78;101861.72;8542888;33;20912;-74
2022/03/26 04:06:50;;;;;;;44.67;22.73;;;;;;;5.06;65.71;101861.84;8542415;33;20176;-73
2022/03/26 04:11:53;;;;;;;43.85;21.52;;;;;;;4.94;65.96;101866.69;8541120;33;20419;-74
2022/03/26 04:16:57;;;;;;;45.53;22.02;;;;;;;4.92;66.27;101861.41;8534484;33;20534;-74
2022/03/26 04:22:01;;;;;;;50.60;23.27;;;;;;;4.90;66.21;101862.38;8533766;33;20136;-74
2022/03/26 04:27:05;;;;;;;46.85;21.70;;;;;;;4.76;65.95;101862.84;8533325;33;20581;-74
2022/03/26 04:32:10;;;;;;;45.35;22.70;;;;;;;4.78;66.56;101863.66;8537083;33;20353;-74
2022/03/26 04:37:14;;;;;;;54.63;24.35;;;;;;;4.74;66.70;101872.66;8540022;33;20148;-74
2022/03/26 04:42:17;;;;;;;50.75;25.92;;;;;;;4.66;66.34;101867.59;8542056;33;20486;-73
2022/03/26 04:47:20;;;;;;;54.35;27.27;;;;;;;4.54;66.49;101868.88;8545603;33;20412;-74
2022/03/26 04:52:25;;;;;;;60.58;27.13;;;;;;;4.41;66.97;101870.16;8547792;33;20209;-73
2022/03/26 04:57:29;;;;;;;53.20;26.20;;;;;;;4.20;67.11;101876.16;8559168;33;20491;-74
2022/03/26 05:02:32;;;;;;;51.25;23.85;;;;;;;4.06;67.19;101874.81;8558391;33;20180;-73
2022/03/26 05:07:49;;;;;;;53.90;26.65;;;;;;;3.90;67.62;101873.53;8555790;33;20176;-73
2022/03/26 05:12:53;;;;;;;51.75;25.70;;;;;;;3.89;67.93;101875.28;8547965;33;20187;-74
2022/03/26 05:17:58;;;;;;;53.58;24.92;;;;;;;4.01;67.98;101870.53;8547869;33;20404;-74
2022/03/26 05:23:05;;;;;;;46.45;24.50;;;;;;;4.18;68.13;101876.22;8542692;33;20446;-73
2022/03/26 05:28:08;;;;;;;52.35;25.80;;;;;;;4.27;68.25;101880.38;8540709;33;20522;-73
2022/03/26 05:33:11;;;;;;;50.90;25.50;;;;;;;4.37;68.15;101872.06;8539352;33;20419;-73
2022/03/26 05:38:16;;;;;;;51.75;26.13;;;;;;;4.30;67.75;101883.81;8542628;33;20406;-73
2022/03/26 05:43:19;;;;;;;56.08;25.80;;;;;;;4.24;67.86;101893.78;8540089;33;20455;-72
2022/03/26 05:48:22;;;;;;;54.95;24.75;;;;;;;4.12;67.82;101893.22;8538190;33;20470;-73
2022/03/26 05:53:27;;;;;;;50.90;25.33;;;;;;;4.06;68.42;101896.09;8537670;33;20401;-73
2022/03/26 05:58:30;;;;;;;51.67;25.63;;;;;;;4.16;68.39;101904.66;8535920;33;20419;-74
2022/03/26 06:03:33;;;;;;;55.10;25.15;;;;;;;4.27;68.00;101902.53;8541008;33;20964;-73
2022/03/26 06:08:37;;;;;;;51.88;24.65;;;;;;;4.65;67.83;101911.09;8548298;33;20406;-73
2022/03/26 06:13:41;;;;;;;53.85;25.42;;;;;;;4.76;67.15;101908.09;8555995;33;20827;-73
2022/03/26 06:18:47;;;;;;;52.35;25.80;;;;;;;5.01;66.99;101922.38;8528452;33;20409;-73
2022/03/26 06:23:51;;;;;;;49.20;24.85;;;;;;;5.26;66.23;101927.75;8532205;33;20218;-74
2022/03/26 06:28:55;;;;;;;51.22;25.20;;;;;;;5.33;65.89;101940.88;8535684;33;20419;-73
2022/03/26 06:33:59;;;;;;;50.28;24.60;;;;;;;5.46;65.57;101940.41;8543992;33;20415;-74
2022/03/26 06:39:06;;;;;;;49.38;25.15;;;;;;;5.79;65.36;101937.47;8554193;33;20420;-74
2022/03/26 06:44:11;;;;;;;61.78;27.38;;;;;;;6.20;64.72;101944.81;8551445;33;20891;-73
2022/03/26 06:49:14;;;;;;;58.70;27.55;;;;;;;6.40;63.84;101947.63;8544933;33;20141;-73
2022/03/26 06:54:19;;;;;;;59.65;27.65;;;;;;;6.67;63.46;101951.00;8547665;33;20136;-73
2022/03/26 06:59:23;;;;;;;64.03;29.83;;;;;;;6.92;62.75;101958.06;8545756;33;20136;-72
2022/03/26 07:04:26;;;;;;;55.05;28.50;;;;;;;7.23;62.32;101952.31;8539352;33;20394;-73
2022/03/26 07:09:30;;;;;;;52.97;28.02;;;;;;;7.66;61.65;101964.72;8537887;33;20468;-74
2022/03/26 07:14:34;;;;;;;54.75;27.88;;;;;;;7.98;59.94;101964.22;8537212;33;20415;-73
2022/03/26 07:19:37;;;;;;;52.78;27.63;;;;;;;8.26;59.49;101972.75;8536419;33;20815;-73
2022/03/26 07:24:42;;;;;;;27.27;15.27;;;;;;;8.82;57.88;101976.38;8534217;32;20145;-73
2022/03/26 07:29:48;;;;;;;31.85;18.35;;;;;;;9.24;56.98;101980.56;8545319;33;20194;-73
2022/03/26 07:34:51;;;;;;;40.33;21.58;;;;;;;9.87;55.33;101967.50;8548148;32;20945;-73
2022/03/26 07:39:56;;;;;;;40.10;21.48;;;;;;;10.18;53.37;101973.91;8549093;32;20406;-72
2022/03/26 07:45:00;;;;;;;44.13;24.27;;;;;;;10.14;53.81;101969.66;8549233;33;20140;-74
2022/03/26 07:50:04;;;;;;;46.88;23.30;;;;;;;10.15;53.96;101982.13;8547116;32;21077;-74
2022/03/26 07:55:10;;;;;;;50.67;25.05;;;;;;;9.86;54.46;101978.31;8544893;32;20952;-74
2022/03/26 08:00:14;;;;;;;50.92;24.75;;;;;;;9.62;54.33;101972.38;8544678;33;20144;-74
2022/03/26 08:05:19;;;;;;;51.50;26.15;;;;;;;9.79;54.51;101985.81;8544615;32;20214;-72
2022/03/26 08:10:24;;;;;;;49.13;24.75;;;;;;;10.39;53.53;101980.81;8546553;32;20455;-72
2022/03/26 08:15:27;;;;;;;56.90;25.80;;;;;;;10.37;53.90;101979.16;8537320;33;20233;-72
2022/03/26 08:20:30;;;;;;;52.60;26.05;;;;;;;10.53;53.72;101982.72;8535666;32;20163;-72
2022/03/26 08:30:55;;;;;;;47.83;25.10;;;;;;;11.23;52.25;101977.00;8537241;32;20144;-72
2022/03/26 08:35:58;;;;;;;54.25;26.38;;;;;;;11.36;52.71;101972.63;8535617;33;20164;-72
2022/03/26 08:41:03;;;;;;;54.22;26.73;;;;;;;11.82;50.96;101977.03;8537792;32;20844;-72
2022/03/26 08:46:06;;;;;;;51.97;25.83;;;;;;;11.83;50.68;101970.72;8530385;33;20992;-72
2022/03/26 08:51:09;;;;;;;52.15;25.60;;;;;;;12.10;49.80;101974.38;8532827;33;20564;-72
2022/03/26 08:56:14;;;;;;;53.30;25.52;;;;;;;12.50;49.36;101973.72;8533583;33;20428;-72
2022/03/26 09:01:17;;;;;;;52.28;24.85;;;;;;;12.45;48.53;101960.56;8534514;33;20152;-72
2022/03/26 09:06:20;;;;;;;48.10;25.48;;;;;;;13.23;47.77;101970.72;8535080;32;20148;-73
2022/03/26 09:11:24;;;;;;;50.47;25.35;;;;;;;13.10;47.79;101970.69;8537590;33;20970;-73
2022/03/26 09:16:29;;;;;;;49.60;23.60;;;;;;;13.58;47.26;101965.66;8537646;33;20650;-72
2022/03/26 09:21:32;;;;;;;41.47;22.05;;;;;;;13.64;47.85;101965.22;8539820;33;21034;-73
2022/03/26 09:26:37;;;;;;;44.53;21.38;;;;;;;13.75;48.44;101972.59;8546804;33;20441;-73
2022/03/26 09:31:40;;;;;;;35.35;18.65;;;;;;;14.03;45.80;101965.25;8541964;33;21592;-73
2022/03/26 09:36:43;;;;;;;32.50;16.17;;;;;;;15.53;43.90;101973.16;8539505;33;21344;-73
2022/03/26 09:41:48;;;;;;;24.40;14.65;;;;;;;15.40;44.57;101970.50;8541299;33;20188;-72
2022/03/26 09:46:52;;;;;;;26.40;15.48;;;;;;;15.88;42.37;101975.81;8536226;33;20564;-73
2022/03/26 09:51:56;;;;;;;22.33;13.52;;;;;;;16.81;40.57;101972.00;8533244;33;20463;-73
2022/03/26 09:57:00;;;;;;;33.22;15.77;;;;;;;17.30;39.57;101967.06;8538789;33;20315;-73
2022/03/26 10:02:04;;;;;;;28.42;13.90;;;;;;;17.57;39.15;101970.13;8552691;33;20493;-72
2022/03/26 10:07:08;;;;;;;25.80;14.52;;;;;;;17.61;38.72;101957.16;8553537;33;21106;-72
2022/03/26 10:12:17;;;;;;;22.48;13.35;;;;;;;16.96;39.85;101959.88;8551809;33;20474;-72
2022/03/26 10:17:24;;;;;;;23.95;14.02;;;;;;;17.63;38.54;101956.00;8550185;33;20958;-72
2022/03/26 10:22:35;;;;;;;20.52;12.35;;;;;;;18.33;37.89;101954.44;8537934;32;20324;-73
2022/03/26 10:27:43;;;;;;;19.55;13.75;;;;;;;18.46;37.14;101953.34;8535859;33;20187;-73
2022/03/26 10:32:49;;;;;;;26.83;14.65;;;;;;;18.43;38.00;101953.59;8542926;33;20448;-73
2022/03/26 10:37:58;;;;;;;22.08;14.07;;;;;;;18.87;36.75;101954.16;8540970;33;20303;-73
2022/03/26 10:43:09;;;;;;;23.70;15.30;;;;;;;19.44;36.03;101953.34;8542051;32;20433;-72
2022/03/26 10:48:12;;;;;;;23.42;15.38;;;;;;;19.65;35.88;101949.59;8541309;33;20155;-73
2022/03/26 10:53:15;;;;;;;22.90;13.68;;;;;;;17.67;37.79;101938.47;8542121;33;20165;-73
2022/03/26 10:58:21;;;;;;;19.73;11.60;;;;;;;18.30;37.51;101937.53;8542761;32;20558;-73
2022/03/26 11:03:24;;;;;;;16.65;10.15;;;;;;;19.06;36.59;101929.69;8548729;32;20629;-73
2022/03/26 11:08:33;;;;;;;17.35;12.15;;;;;;;19.82;34.59;101920.72;8547585;32;20705;-73
2022/03/26 11:13:45;;;;;;;17.95;11.02;;;;;;;19.10;35.88;101919.38;8557961;32;21689;-72
2022/03/26 11:19:01;;;;;;;18.50;11.35;;;;;;;19.26;36.55;101916.06;8563084;32;20258;-72
2022/03/26 11:24:55;;;;;;;17.73;11.73;;;;;;;20.03;35.73;101907.72;8562568;32;20599;-72
2022/03/26 11:30:04;;;;;;;15.90;10.80;;;;;;;20.88;34.62;101896.63;8489170;33;20234;-73
2022/03/26 11:35:14;;;;;;;18.15;11.02;;;;;;;22.44;32.13;101888.50;8556832;32;20421;-73
2022/03/26 11:40:45;;;;;;;16.73;11.93;;;;;;;21.21;33.00;101889.63;8548352;33;20183;-73
2022/03/26 11:51:19;;;;;;;16.92;11.07;;;;;;;22.22;32.01;101881.72;8553018;33;20641;-72
2022/03/26 11:56:24;;;;;;;17.55;11.77;;;;;;;22.65;31.17;101885.28;8539691;33;20462;-74
2022/03/26 12:01:36;;;;;;;15.95;11.20;;;;;;;23.68;30.33;101884.81;8544891;32;20559;-73
2022/03/26 12:06:46;;;;;;;17.95;12.50;;;;;;;23.88;29.46;101874.31;8542792;32;20423;-73
2022/03/26 12:12:20;;;;;;;20.25;12.68;;;;;;;22.97;30.80;101876.25;8543372;33;20421;-73
2022/03/26 12:17:46;;;;;;;19.85;13.07;;;;;;;21.98;32.85;101871.53;8539597;33;20128;-74
2022/03/26 12:22:53;;;;;;;18.48;12.20;;;;;;;22.83;31.90;101867.88;8532055;33;20181;-73
2022/03/26 12:27:56;;;;;;;17.27;11.30;;;;;;;23.35;29.98;101862.94;8564203;33;20462;-73
2022/03/26 12:33:01;;;;;;;15.25;9.85;;;;;;;23.51;30.26;101870.28;8539026;32;20531;-73
2022/03/26 12:38:05;;;;;;;14.98;10.70;;;;;;;23.11;29.63;101861.06;8538569;32;20296;-73
2022/03/26 12:43:10;;;;;;;16.55;11.32;;;;;;;22.24;32.11;101852.31;8539367;32;20448;-73
2022/03/26 12:48:16;;;;;;;15.88;10.93;;;;;;;23.74;30.04;101839.34;8537171;33;20600;-73
2022/03/26 12:53:21;;;;;;;18.50;11.77;;;;;;;23.89;30.53;101843.13;8556492;33;21100;-72
2022/03/26 13:03:48;;;;;;;16.45;10.38;;;;;;;22.86;30.67;101835.50;8540373;33;20415;-73
2022/03/26 13:08:52;;;;;;;16.90;11.43;;;;;;;21.45;32.19;101834.28;8541216;32;20508;-73
2022/03/26 13:13:57;;;;;;;15.20;9.73;;;;;;;22.30;31.84;101821.53;8535238;32;20417;-72
2022/03/26 13:19:05;;;;;;;19.00;11.85;;;;;;;24.84;28.51;101822.84;8530957;33;20433;-72
2022/03/26 13:24:10;;;;;;;15.90;11.23;;;;;;;26.31;27.34;101818.53;8532291;33;20515;-73
2022/03/26 13:29:16;;;;;;;18.08;11.60;;;;;;;24.85;28.69;101816.28;8534700;33;20920;-73
2022/03/26 13:34:26;;;;;;;15.93;11.25;;;;;;;26.62;26.29;101809.09;8537306;33;20152;-73
2022/03/26 13:39:31;;;;;;;19.08;12.23;;;;;;;25.83;26.48;101812.59;8539839;33;20172;-74
2022/03/26 13:44:34;;;;;;;16.52;11.40;;;;;;;26.45;27.34;101812.09;8543991;33;20140;-73
2022/03/26 13:49:38;;;;;;;15.93;11.85;;;;;;;27.81;25.15;101798.13;8542635;33;20183;-74
2022/03/26 13:54:42;;;;;;;16.50;11.20;;;;;;;27.68;24.82;101798.94;8545255;33;20464;-74
2022/03/26 13:59:48;;;;;;;16.27;10.68;;;;;;;27.90;24.65;101796.09;8543596;33;20811;-74
2022/03/26 14:04:53;;;;;;;17.23;11.50;;;;;;;27.00;25.50;101793.16;8543301;33;20428;-74
2022/03/26 14:09:56;;;;;;;16.77;11.55;;;;;;;27.37;25.55;101789.19;8542273;33;20340;-73
2022/03/26 14:14:59;;;;;;;16.98;10.93;;;;;;;25.57;28.03;101771.78;8545868;33;20474;-73
2022/03/26 14:20:05;;;;;;;16.25;10.55;;;;;;;26.57;26.55;101778.53;8550002;33;20468;-73
2022/03/26 14:25:09;;;;;;;20.58;11.23;;;;;;;27.31;25.85;101769.81;8542654;33;20421;-73
2022/03/26 14:30:13;;;;;;;16.75;9.75;;;;;;;26.49;26.57;101769.34;8543339;33;20469;-73
2022/03/26 14:35:17;;;;;;;15.27;10.13;;;;;;;25.05;27.94;101759.81;8547349;33;20243;-72
2022/03/26 14:40:21;;;;;;;16.70;10.80;;;;;;;23.24;30.92;101761.00;8547888;33;20414;-72
2022/03/26 14:45:24;;;;;;;14.77;10.15;;;;;;;23.98;29.67;101750.63;8549225;33;20140;-72
2022/03/26 14:50:30;;;;;;;14.23;9.77;;;;;;;23.62;30.94;101759.34;8551294;33;20480;-73
2022/03/26 14:55:33;;;;;;;15.65;10.23;;;;;;;21.63;33.06;101754.91;8559103;32;21684;-74
2022/03/26 15:00:37;;;;;;;15.45;10.48;;;;;;;22.70;32.42;101750.59;8559661;32;20213;-74
2022/03/26 15:05:41;;;;;;;19.58;11.10;;;;;;;22.87;32.24;101759.66;8561453;32;20643;-74
2022/03/26 15:10:46;;;;;;;19.73;11.10;;;;;;;23.03;32.24;101756.88;8560339;33;20476;-74
2022/03/26 15:15:49;;;;;;;18.48;11.60;;;;;;;23.55;31.31;101748.22;8567788;32;20184;-73
2022/03/26 15:20:53;;;;;;;17.17;11.75;;;;;;;22.49;32.14;101753.81;8566173;32;20191;-73
2022/03/26 15:26:02;;;;;;;18.23;11.35;;;;;;;22.04;34.19;101760.56;8561773;32;20648;-73
2022/03/26 15:31:05;;;;;;;17.50;11.77;;;;;;;22.98;32.67;101741.00;8560050;33;22023;-73
2022/03/26 15:36:10;;;;;;;21.77;12.95;;;;;;;21.81;33.56;101746.66;8561982;32;20415;-73
2022/03/26 15:41:13;;;;;;;19.20;12.43;;;;;;;20.97;35.17;101740.00;8560738;33;20148;-73
2022/03/26 15:46:16;;;;;;;19.42;11.80;;;;;;;20.41;37.16;101753.03;8547306;32;20648;-73
2022/03/26 15:51:21;;;;;;;19.63;11.68;;;;;;;20.55;36.85;101744.28;8557120;32;21390;-72
2022/03/26 15:56:25;;;;;;;16.63;10.52;;;;;;;20.59;36.94;101747.53;8544798;32;20215;-73
2022/03/26 16:01:28;;;;;;;15.98;10.30;;;;;;;20.23;37.06;101749.41;8542103;32;20136;-73
2022/03/26 16:06:32;;;;;;;18.08;10.45;;;;;;;19.26;39.49;101752.63;8544251;33;20196;-73
2022/03/26 16:11:35;;;;;;;16.85;10.43;;;;;;;18.84;39.97;101756.59;8543429;32;21770;-72
2022/03/26 16:16:38;;;;;;;23.75;11.25;;;;;;;18.45;41.25;101762.00;8543193;32;20443;-72
2022/03/26 16:21:43;;;;;;;17.08;11.25;;;;;;;18.02;41.64;101760.53;8540498;33;20492;-73
2022/03/26 16:26:47;;;;;;;15.88;10.13;;;;;;;17.73;42.45;101760.41;8545750;33;21780;-73
2022/03/26 16:31:50;;;;;;;15.65;9.48;;;;;;;17.51;42.71;101766.91;8544731;33;20610;-72
2022/03/26 16:36:54;;;;;;;15.93;9.32;;;;;;;17.28;43.40;101758.09;8545702;33;20149;-72
2022/03/26 16:41:58;;;;;;;14.98;9.60;;;;;;;17.04;43.54;101767.34;8544933;33;20501;-72
2022/03/26 16:47:01;;;;;;;17.30;9.27;;;;;;;16.93;43.61;101761.13;8538786;33;20514;-72
2022/03/26 16:52:07;;;;;;;17.73;10.45;;;;;;;16.78;44.76;101771.44;8542287;33;21312;-72
2022/03/26 16:57:11;;;;;;;12.52;7.90;;;;;;;16.49;45.85;101765.81;8539467;33;20283;-72
2022/03/26 17:02:14;;;;;;;21.10;9.75;;;;;;;16.10;47.14;101763.56;8538062;33;20199;-73
2022/03/26 17:07:18;;;;;;;16.77;9.35;;;;;;;16.10;47.23;101763.56;8538686;32;20179;-72
2022/03/26 17:12:21;;;;;;;15.02;9.88;;;;;;;16.12;47.41;101771.53;8547186;33;20409;-73
2022/03/26 17:17:25;;;;;;;17.33;9.88;;;;;;;16.06;47.41;101770.19;8544390;32;20453;-73
2022/03/26 17:22:29;;;;;;;16.10;9.73;;;;;;;15.99;47.82;101774.41;8536604;32;20468;-73
2022/03/26 17:27:32;;;;;;;16.15;9.70;;;;;;;15.86;48.60;101777.25;8539686;32;21178;-73
2022/03/26 17:32:35;;;;;;;17.85;10.13;;;;;;;15.77;48.97;101775.31;8564642;32;20450;-72
2022/03/26 17:37:40;;;;;;;18.52;9.40;;;;;;;15.65;49.53;101785.28;8541783;33;20421;-73
2022/03/26 17:42:45;;;;;;;13.80;8.45;;;;;;;15.55;50.13;101781.59;8545907;32;21532;-73
2022/03/26 17:47:48;;;;;;;18.92;8.98;;;;;;;15.38;50.81;101785.63;8532221;32;20152;-73
2022/03/26 17:52:56;;;;;;;16.55;8.75;;;;;;;15.36;51.31;101784.03;8540406;33;20407;-73
2022/03/26 17:58:00;;;;;;;14.60;8.55;;;;;;;15.26;51.89;101782.03;8538201;33;20252;-73
2022/03/26 18:03:21;;;;;;;16.80;8.90;;;;;;;15.14;51.69;101787.53;8539919;32;20206;-72
2022/03/26 18:08:26;;;;;;;14.52;9.00;;;;;;;15.11;52.64;101791.38;8542420;33;20865;-73
2022/03/26 18:13:29;;;;;;;13.95;8.45;;;;;;;15.02;52.81;101800.19;8540136;32;20241;-72
2022/03/26 18:18:32;;;;;;;14.38;8.55;;;;;;;14.91;53.40;101806.44;8542198;33;20290;-72
2022/03/26 18:23:36;;;;;;;15.35;8.40;;;;;;;14.79;53.72;101812.78;8540969;33;20436;-73
2022/03/26 18:28:39;;;;;;;12.98;7.82;;;;;;;14.80;53.62;101818.06;8540602;33;20434;-73
2022/03/26 18:33:44;;;;;;;12.35;7.82;;;;;;;14.78;54.09;101828.16;8545274;32;20426;-73
2022/03/26 18:38:49;;;;;;;10.05;6.53;;;;;;;14.79;54.13;101829.88;8557059;33;20148;-73
2022/03/26 18:43:53;;;;;;;13.20;7.00;;;;;;;14.81;53.99;101833.34;8570745;33;20564;-74
2022/03/26 18:48:56;;;;;;;12.02;6.60;;;;;;;14.68;54.45;101843.38;8567412;33;20206;-73
2022/03/26 18:54:00;;;;;;;10.70;6.10;;;;;;;14.48;55.25;101844.88;8563281;33;20270;-73
2022/03/26 18:59:05;;;;;;;9.35;6.28;;;;;;;14.35;56.04;101841.31;8562667;32;20414;-73
2022/03/26 19:04:08;;;;;;;9.00;5.60;;;;;;;14.21;56.75;101853.16;8563624;33;20129;-72
2022/03/26 19:09:13;;;;;;;6.90;4.55;;;;;;;14.13;57.52;101853.69;8560931;32;20229;-73
2022/03/26 19:14:16;;;;;;;6.55;3.90;;;;;;;13.97;58.30;101855.78;8556926;33;20164;-73
2022/03/26 19:19:19;;;;;;;5.88;4.20;;;;;;;13.97;58.30;101847.69;8558287;32;20266;-73
2022/03/26 19:24:23;;;;;;;6.15;3.92;;;;;;;13.91;58.77;101850.84;8556118;32;20892;-73
2022/03/26 19:29:40;;;;;;;6.07;4.20;;;;;;;13.94;58.60;101853.31;8550550;32;20423;-72
2022/03/26 19:34:44;;;;;;;6.78;4.20;;;;;;;13.92;58.83;101849.84;8544160;32;21022;-72
2022/03/26 19:39:49;;;;;;;6.53;4.32;;;;;;;13.77;59.47;101843.72;8547327;33;20417;-73
2022/03/26 19:44:52;;;;;;;6.32;3.95;;;;;;;13.65;59.66;101853.53;8550405;32;20688;-72
2022/03/26 19:49:55;;;;;;;10.25;4.85;;;;;;;13.65;60.46;101852.69;8549249;32;20409;-71
2022/03/26 19:55:00;;;;;;;6.88;4.47;;;;;;;13.57;60.35;101861.31;8547779;32;20502;-73
2022/03/26 20:00:05;;;;;;;6.85;4.40;;;;;;;13.53;60.55;101856.25;8546107;32;20443;-73
2022/03/26 20:05:12;;;;;;;6.28;5.07;;;;;;;13.45;60.95;101868.44;8543712;33;20175;-72
2022/03/26 20:10:16;;;;;;;9.63;5.90;;;;;;;13.35;60.71;101871.88;8547253;33;21122;-74
2022/03/26 20:15:20;;;;;;;7.38;5.82;;;;;;;13.17;61.62;101876.72;8569992;33;21926;-73
2022/03/26 20:20:23;;;;;;;8.75;5.90;;;;;;;12.98;62.33;101880.66;8545288;33;20184;-74
2022/03/26 20:25:28;;;;;;;8.63;6.25;;;;;;;12.76;62.77;101877.66;8545443;33;20140;-73
2022/03/26 20:30:32;;;;;;;11.10;6.80;;;;;;;12.62;63.53;101880.44;8544911;33;20144;-73
2022/03/26 20:35:36;;;;;;;9.02;6.50;;;;;;;12.41;64.29;101888.94;8546231;33;20155;-74
2022/03/26 20:40:41;;;;;;;7.40;5.85;;;;;;;12.25;64.83;101896.25;8541781;32;20451;-74
2022/03/26 20:45:44;;;;;;;6.97;5.53;;;;;;;12.10;65.48;101896.28;8551456;33;20438;-73
2022/03/26 20:50:52;;;;;;;7.45;5.07;;;;;;;11.85;66.36;101910.44;8553209;32;20148;-73
2022/03/26 20:55:56;;;;;;;7.55;5.65;;;;;;;11.66;66.65;101915.22;8532785;32;20267;-74
2022/03/26 21:00:59;;;;;;;9.43;6.53;;;;;;;11.57;67.35;101915.75;8542443;32;20430;-73
2022/03/26 21:06:04;;;;;;;12.07;7.20;;;;;;;11.39;67.70;101917.75;8543765;32;21673;-73
2022/03/26 21:11:08;;;;;;;11.13;8.05;;;;;;;11.22;68.23;101922.31;8542648;33;20172;-72
2022/03/26 21:16:11;;;;;;;9.05;6.65;;;;;;;11.16;68.36;101938.84;8542814;33;20151;-73
2022/03/26 21:21:15;;;;;;;12.55;7.80;;;;;;;11.03;68.94;101943.16;8540129;33;20738;-73
2022/03/26 21:26:19;;;;;;;11.40;7.25;;;;;;;10.99;69.08;101942.44;8542111;32;20149;-73
2022/03/26 21:31:22;;;;;;;11.65;7.25;;;;;;;10.91;69.09;101935.78;8542451;32;20415;-74
2022/03/26 21:36:25;;;;;;;14.30;8.77;;;;;;;10.83;69.44;101942.50;8544374;33;20518;-73
2022/03/26 21:41:30;;;;;;;16.38;9.57;;;;;;;10.73;69.54;101945.78;8545668;32;20433;-73
2022/03/26 21:46:33;;;;;;;11.98;8.32;;;;;;;10.59;69.70;101949.28;8544341;33;20190;-73
2022/03/26 21:51:36;;;;;;;14.68;10.10;;;;;;;10.46;69.97;101946.41;8540885;32;20194;-74
2022/03/26 21:56:40;;;;;;;12.48;8.95;;;;;;;10.29;70.43;101950.03;8535751;33;20191;-73
2022/03/26 22:01:44;;;;;;;14.15;9.20;;;;;;;10.25;70.54;101955.63;8538801;33;20407;-73
2022/03/26 22:06:48;;;;;;;15.52;9.77;;;;;;;10.22;70.37;101961.19;8538018;33;20219;-73
2022/03/26 22:11:53;;;;;;;17.02;11.02;;;;;;;10.15;70.68;101960.66;8537857;33;20452;-72
2022/03/26 22:16:56;;;;;;;20.75;12.35;;;;;;;9.98;71.31;101958.84;8535491;33;20156;-74
2022/03/26 22:21:59;;;;;;;20.70;12.55;;;;;;;9.88;71.63;101952.25;8536707;33;20279;-73
2022/03/26 22:27:05;;;;;;;20.75;12.95;;;;;;;9.67;72.17;101962.28;8529813;33;20170;-73
2022/03/26 22:32:10;;;;;;;22.10;14.07;;;;;;;9.50;72.54;101968.53;8538572;33;20572;-73
2022/03/26 22:37:33;;;;;;;24.60;14.40;;;;;;;9.41;73.12;101975.22;8536804;33;20510;-73
2022/03/26 22:42:38;;;;;;;21.55;13.43;;;;;;;9.37;73.12;101970.09;8541149;33;20513;-73
2022/03/26 22:47:41;;;;;;;23.08;13.82;;;;;;;9.34;73.13;101984.53;8544529;33;20253;-73
2022/03/26 22:52:46;;;;;;;25.83;14.25;;;;;;;9.23;73.49;101976.16;8546163;32;20420;-73
2022/03/26 22:57:51;;;;;;;23.80;14.48;;;;;;;9.21;73.10;101970.84;8546189;32;20445;-73
2022/03/26 23:02:57;;;;;;;23.13;13.38;;;;;;;9.01;73.52;101977.22;8548760;32;20449;-73
2022/03/26 23:08:01;;;;;;;26.95;14.55;;;;;;;8.91;73.27;101972.38;8548963;32;20540;-73
2022/03/26 23:13:05;;;;;;;25.10;14.55;;;;;;;8.87;73.37;101979.69;8549279;32;20439;-73
2022/03/26 23:18:11;;;;;;;25.58;14.80;;;;;;;8.85;73.12;101981.59;8549044;32;21272;-73
2022/03/26 23:23:14;;;;;;;24.15;13.27;;;;;;;8.90;72.79;101976.00;8547941;32;20195;-73
2022/03/26 23:28:18;;;;;;;23.77;13.98;;;;;;;8.92;72.60;101984.84;8549810;33;20162;-73
2022/03/26 23:33:22;;;;;;;26.20;14.05;;;;;;;8.88;72.04;101983.25;8545170;33;20417;-73